createdAt,value
2019-05-17T00:01:16.509Z,10.40
2019-05-17T00:06:57.845Z,10.40
2019-05-17T00:10:01.496Z,10.40
2019-05-17T00:12:29.647Z,10.40
2019-05-17T00:15:13.252Z,10.40
2019-05-17T00:17:46.908Z,10.20
2019-05-17T00:20:47.683Z,10.20
2019-05-17T00:23:52.206Z,10.20
2019-05-17T00:26:58.596Z,10.20
2019-05-17T00:29:17.163Z,10.20
2019-05-17T00:31:56.883Z,10.20
2019-05-17T00:34:37.637Z,10.30
2019-05-17T00:37:22.560Z,10.20
2019-05-17T00:40:08.659Z,10.20
2019-05-17T00:42:49.243Z,10.30
2019-05-17T00:45:17.953Z,10.30
2019-05-17T00:47:58.849Z,10.30
2019-05-17T00:50:31.072Z,10.30
2019-05-17T00:53:09.186Z,10.30
2019-05-17T00:56:00.382Z,10.30
2019-05-17T00:58:37.068Z,10.30
2019-05-17T01:01:08.812Z,10.30
2019-05-17T01:03:41.022Z,10.30
2019-05-17T01:06:27.476Z,10.40
2019-05-17T01:09:03.998Z,10.30
2019-05-17T01:11:40.134Z,10.30
2019-05-17T01:14:26.464Z,10.20
2019-05-17T01:17:07.216Z,10.20
2019-05-17T01:19:39.102Z,10.20
2019-05-17T01:22:12.029Z,10.20
2019-05-17T01:24:43.298Z,10.20
2019-05-17T01:27:17.204Z,10.10
2019-05-17T01:29:50.017Z,10.00
2019-05-17T01:32:23.442Z,10.00
2019-05-17T01:34:56.503Z,10.00
2019-05-17T01:37:28.371Z,9.90
2019-05-17T01:40:00.691Z,10.00
2019-05-17T01:42:37.367Z,9.90
2019-05-17T01:45:17.036Z,10.00
2019-05-17T01:47:59.062Z,10.00
2019-05-17T01:50:30.530Z,10.00
2019-05-17T01:53:03.182Z,10.00
2019-05-17T01:55:52.221Z,10.00
2019-05-17T01:58:46.828Z,9.90
2019-05-17T02:01:28.351Z,9.90
2019-05-17T02:04:01.070Z,9.90
2019-05-17T02:07:06.724Z,9.90
2019-05-17T02:09:47.496Z,9.90
2019-05-17T02:12:24.049Z,9.90
2019-05-17T02:14:57.383Z,9.90
2019-05-17T02:17:29.260Z,9.80
2019-05-17T02:20:08.658Z,9.80
2019-05-17T02:22:40.187Z,9.90
2019-05-17T02:25:33.533Z,9.90
2019-05-17T02:28:14.382Z,9.90
2019-05-17T02:30:46.180Z,9.90
2019-05-17T02:33:23.373Z,9.80
2019-05-17T02:35:56.194Z,9.90
2019-05-17T02:38:27.991Z,10.00
2019-05-17T02:40:59.280Z,10.00
2019-05-17T02:43:33.450Z,9.90
2019-05-17T02:46:03.888Z,9.90
2019-05-17T02:48:37.847Z,9.90
2019-05-17T02:51:08.871Z,9.90
2019-05-17T02:53:43.071Z,9.80
2019-05-17T02:56:24.271Z,9.80
2019-05-17T02:58:59.750Z,9.90
2019-05-17T03:01:39.162Z,9.90
2019-05-17T03:04:12.783Z,9.80
2019-05-17T03:06:55.054Z,9.80
2019-05-17T03:09:26.529Z,9.80
2019-05-17T03:12:08.117Z,9.90
2019-05-17T03:14:43.317Z,9.90
2019-05-17T03:17:18.423Z,9.90
2019-05-17T03:19:58.680Z,9.90
2019-05-17T03:22:36.592Z,9.90
2019-05-17T03:25:19.286Z,9.90
2019-05-17T03:28:13.822Z,9.80
2019-05-17T03:30:47.172Z,9.80
2019-05-17T03:33:35.154Z,9.90
2019-05-17T03:36:08.704Z,9.90
2019-05-17T03:38:42.995Z,9.90
2019-05-17T03:41:23.698Z,9.90
2019-05-17T03:44:03.320Z,9.80
2019-05-17T03:46:57.902Z,9.80
2019-05-17T03:49:32.954Z,9.80
2019-05-17T03:52:04.537Z,9.80
2019-05-17T03:54:37.738Z,9.90
2019-05-17T03:57:38.034Z,9.90
2019-05-17T04:00:35.724Z,9.80
2019-05-17T04:03:13.728Z,9.90
2019-05-17T04:06:07.047Z,9.90
2019-05-17T04:09:03.828Z,9.90
2019-05-17T04:11:48.743Z,9.90
2019-05-17T04:14:42.659Z,9.90
2019-05-17T04:17:38.387Z,9.90
2019-05-17T04:20:15.420Z,10.00
2019-05-17T04:23:07.083Z,10.00
2019-05-17T04:26:22.907Z,10.00
2019-05-17T04:28:53.703Z,10.00
2019-05-17T04:31:24.855Z,10.00
2019-05-17T04:34:07.929Z,10.10
2019-05-17T04:36:55.985Z,10.10
2019-05-17T04:39:32.502Z,10.20
2019-05-17T04:42:13.788Z,10.20
2019-05-17T04:44:52.748Z,10.30
2019-05-17T04:47:33.167Z,10.30
2019-05-17T04:50:26.441Z,10.30
2019-05-17T04:53:13.330Z,10.30
2019-05-17T04:56:03.090Z,10.30
2019-05-17T04:58:35.305Z,10.10
2019-05-17T05:01:08.948Z,10.10
2019-05-17T05:03:47.925Z,10.10
2019-05-17T05:06:19.614Z,10.10
2019-05-17T05:09:02.578Z,10.00
2019-05-17T05:12:05.433Z,10.00
2019-05-17T05:17:42.534Z,9.90
2019-05-17T05:20:43.595Z,10.00
2019-05-17T05:23:55.516Z,10.10
2019-05-17T05:26:57.256Z,10.30
2019-05-17T05:29:53.255Z,10.40
2019-05-17T05:33:06.570Z,10.60
2019-05-17T05:35:57.965Z,10.50
2019-05-17T05:38:32.248Z,10.50
2019-05-17T05:41:24.587Z,10.50
2019-05-17T05:48:17.203Z,10.50
2019-05-17T05:51:18.243Z,10.60
2019-05-17T05:57:28.269Z,10.80
2019-05-17T06:00:42.330Z,10.80
2019-05-17T06:03:26.036Z,10.80
2019-05-17T06:06:05.719Z,10.90
2019-05-17T06:08:56.608Z,11.00
2019-05-17T06:11:18.025Z,11.00
2019-05-17T06:14:18.952Z,10.90
2019-05-17T06:17:25.693Z,11.00
2019-05-17T06:20:18.537Z,10.80
2019-05-17T06:23:45.572Z,10.90
2019-05-17T06:27:03.355Z,11.10
2019-05-17T06:30:32.500Z,11.30
2019-05-17T06:33:45.983Z,11.30
2019-05-17T06:36:59.060Z,11.30
2019-05-17T06:39:52.736Z,11.30
2019-05-17T06:43:09.189Z,11.60
2019-05-17T06:46:33.853Z,11.80
2019-05-17T06:56:22.792Z,12.00
2019-05-17T07:03:02.224Z,11.90
2019-05-17T07:06:00.425Z,11.80
2019-05-17T07:09:16.078Z,11.80
2019-05-17T07:12:20.140Z,11.40
2019-05-17T07:19:01.185Z,11.30
2019-05-17T07:22:10.119Z,11.40
2019-05-17T07:25:30.381Z,11.60
2019-05-17T07:28:37.836Z,11.60
2019-05-17T07:43:29.746Z,11.70
2019-05-17T07:49:49.400Z,11.80
2019-05-17T07:57:50.024Z,11.60
2019-05-17T08:00:07.262Z,11.60
2019-05-17T08:03:12.141Z,11.70
2019-05-17T08:06:21.741Z,11.60
2019-05-17T08:09:52.616Z,11.60
2019-05-17T08:12:49.388Z,11.60
2019-05-17T08:16:14.117Z,11.80
2019-05-17T08:19:06.851Z,12.10
2019-05-17T08:25:33.128Z,12.30
2019-05-17T08:28:35.337Z,12.60
2019-05-17T08:39:34.969Z,12.80
2019-05-17T08:50:03.074Z,13.20
2019-05-17T08:53:52.187Z,13.20
2019-05-17T09:04:22.985Z,12.70
2019-05-17T09:07:33.489Z,12.50
2019-05-17T09:10:46.314Z,12.20
2019-05-17T09:14:04.184Z,12.30
2019-05-17T09:21:03.042Z,12.50
2019-05-17T09:24:59.445Z,12.50
2019-05-17T09:35:53.703Z,12.60
2019-05-17T09:43:22.552Z,12.50
2019-05-17T09:50:17.020Z,12.50
2019-05-17T09:54:03.299Z,12.50
2019-05-17T09:57:33.513Z,12.50
2019-05-17T10:04:19.907Z,12.30
2019-05-17T10:07:10.257Z,12.50
2019-05-17T10:13:26.457Z,12.70
2019-05-17T10:40:59.279Z,12.90
2019-05-17T10:48:02.111Z,12.80
2019-05-17T10:51:49.399Z,13.00
2019-05-17T11:24:14.197Z,13.20
2019-05-17T11:31:39.794Z,13.00
2019-05-17T11:39:04.507Z,13.00
2019-05-17T11:50:00.665Z,12.80
2019-05-17T11:50:09.340Z,12.80
2019-05-17T11:52:59.595Z,12.80
2019-05-17T12:03:10.641Z,13.10
2019-05-17T12:06:39.745Z,13.00
2019-05-17T12:13:13.936Z,12.90
2019-05-17T12:17:20.321Z,12.90
2019-05-17T12:21:02.225Z,12.90
2019-05-17T12:47:33.117Z,13.30
2019-05-17T12:55:32.988Z,13.30
2019-05-17T12:59:10.637Z,13.40
2019-05-17T14:06:38.690Z,12.60
2019-05-17T14:13:28.885Z,12.90
2019-05-17T14:17:05.425Z,13.10
2019-05-17T14:27:19.344Z,13.80
2019-05-17T14:51:30.372Z,13.30
2019-05-17T14:55:05.530Z,13.40
2019-05-17T15:19:40.441Z,13.50
2019-05-17T15:26:41.722Z,13.40
2019-05-17T15:30:28.156Z,13.50
2019-05-17T15:33:43.371Z,13.60
2019-05-17T15:36:55.769Z,13.60
2019-05-17T15:40:08.201Z,13.60
2019-05-17T15:43:23.282Z,13.60
2019-05-17T15:46:31.458Z,13.60
2019-05-17T15:49:25.839Z,13.60
2019-05-17T15:52:39.933Z,13.40
2019-05-17T15:55:52.024Z,13.40
2019-05-17T15:58:47.849Z,13.40
2019-05-17T16:01:58.822Z,13.40
2019-05-17T16:07:36.747Z,13.30
2019-05-17T16:14:51.101Z,13.40
2019-05-17T16:18:03.422Z,13.50
2019-05-17T16:21:26.955Z,13.60
2019-05-17T16:24:02.924Z,13.70
2019-05-17T16:27:15.771Z,13.70
2019-05-17T16:30:07.523Z,13.70
2019-05-17T16:32:59.890Z,13.80
2019-05-17T17:16:10.963Z,13.60
2019-05-17T17:19:27.229Z,13.60
2019-05-17T17:23:02.924Z,13.60
2019-05-17T17:25:43.797Z,13.70
2019-05-17T17:28:31.434Z,13.70
2019-05-17T17:34:39.079Z,13.70
2019-05-17T17:37:27.257Z,13.70
2019-05-17T17:40:51.816Z,13.70
2019-05-17T17:44:16.177Z,13.80
2019-05-17T18:15:45.109Z,13.80
2019-05-17T18:22:55.588Z,13.70
2019-05-17T18:26:24.923Z,13.80
2019-05-17T18:29:46.479Z,13.80
2019-05-17T18:36:23.412Z,13.80
2019-05-17T18:44:27.282Z,13.80
2019-05-17T19:02:47.900Z,13.80
2019-05-17T19:05:45.141Z,13.80
2019-05-17T19:08:58.925Z,13.80
2019-05-17T19:11:54.658Z,14.30
2019-05-17T19:14:54.378Z,14.30
2019-05-17T19:18:36.487Z,14.30
2019-05-17T19:22:13.841Z,14.30
2019-05-17T19:28:54.287Z,14.30
2019-05-17T19:32:38.807Z,14.10
2019-05-17T19:36:09.268Z,13.90
2019-05-17T20:30:24.956Z,13.30
2019-05-17T20:37:36.312Z,13.40
2019-05-17T20:41:18.287Z,13.30
2019-05-17T20:55:18.044Z,13.40
2019-05-17T21:02:36.667Z,13.40
2019-05-17T21:05:43.057Z,13.40
2019-05-17T21:08:50.719Z,13.40
2019-05-17T21:15:54.110Z,13.50
2019-05-17T21:18:48.514Z,13.50
2019-05-17T21:21:58.389Z,13.40
2019-05-17T21:25:01.217Z,13.30
2019-05-17T21:28:16.766Z,13.30
2019-05-17T21:31:23.027Z,13.20
2019-05-17T21:34:21.144Z,13.20
2019-05-17T21:38:12.118Z,13.20
2019-05-17T21:41:39.402Z,13.10
2019-05-17T21:44:23.415Z,13.10
2019-05-17T21:47:33.357Z,13.10
2019-05-17T21:50:38.103Z,13.10
2019-05-17T21:53:36.177Z,13.10
2019-05-17T21:59:35.191Z,13.10
2019-05-17T22:02:20.530Z,13.00
2019-05-17T22:07:52.967Z,13.10
2019-05-17T22:10:44.970Z,13.20
2019-05-17T22:14:13.482Z,12.80
2019-05-17T22:17:09.658Z,13.10
2019-05-17T22:19:54.437Z,13.10
2019-05-17T22:22:40.420Z,13.10
2019-05-17T22:25:32.736Z,13.20
2019-05-17T22:28:20.526Z,13.10
2019-05-17T22:31:21.326Z,13.10
2019-05-17T22:34:10.816Z,13.10
2019-05-17T22:37:05.322Z,13.10
2019-05-17T22:40:00.135Z,13.00
2019-05-17T22:42:48.450Z,13.00
2019-05-17T22:45:27.203Z,13.00
2019-05-17T22:48:23.375Z,13.00
2019-05-17T22:51:04.117Z,12.90
2019-05-17T22:53:45.926Z,12.80
2019-05-17T22:57:01.175Z,12.90
2019-05-17T22:59:46.993Z,12.90
2019-05-17T23:02:40.977Z,12.80
2019-05-17T23:05:25.081Z,12.80
2019-05-17T23:07:57.209Z,12.80
2019-05-17T23:10:40.426Z,12.70
2019-05-17T23:19:54.964Z,12.50
2019-05-17T23:23:21.254Z,12.40
2019-05-17T23:26:06.024Z,12.30
2019-05-17T23:28:49.177Z,12.30
2019-05-17T23:31:26.690Z,12.30
2019-05-17T23:34:12.735Z,12.20
2019-05-17T23:36:53.921Z,12.10
2019-05-17T23:39:59.548Z,12.00
2019-05-17T23:42:45.857Z,12.00
2019-05-17T23:45:35.245Z,11.90
2019-05-17T23:48:22.782Z,11.90
2019-05-17T23:51:02.158Z,11.90
2019-05-17T23:53:42.870Z,11.90
2019-05-17T23:56:46.289Z,12.00
2019-05-17T23:59:34.857Z,12.00
